Georg Jacob — A8XG5 — position and weather

sailwx.info

Track history (hours):
 
Tides and Currents Weather Stations Pressure Air Temp Water Temp Dewpoint Dewpoint Depression Visibility Wind Speed Wind Dir Waves Ship Positions

Georg Jacob

Last reported at 2016-Dec-09 19:20 UTC. Time now 2016-Dec-10 16:41 UTC.
Position N 36°11' E 014°46'.

Length 229 m; draft 12.7 m.

Type: Tanker. MMSI: 636092136.

Date/timePositionNaut miles runAvg speedWind from/ knotsBaromVisibWave heightAir tempDewpointWater temp
2016-Dec-09 19:20N 36°11' E 014°46'1012.9
2016-Dec-09 18:33N 36°14' E 014°34'1313.2
2016-Dec-09 17:33N 36°19' E 014°19'1313.3
2016-Dec-09 16:33N 36°24' E 014°04'1313.3
2016-Dec-09 15:33N 36°29' E 013°48'1713.2
2016-Dec-09 14:14N 36°35' E 013°28'1013.2
2016-Dec-09 13:30N 36°38' E 013°17'  
2016-Dec-06 14:12N 35°60' W 005°03'914.0
2016-Dec-06 13:33N 35°60' W 005°14'1010.1
2016-Dec-06 12:32N 36°06' W 005°24'0 0.2
2016-Dec-06 11:17N 36°06' W 005°24'0 0.1
2016-Dec-06 10:23N 36°06' W 005°24'0 0.1
2016-Dec-06 09:23N 36°06' W 005°24'0 0.2
2016-Dec-06 08:07N 36°06' W 005°24'1 1.9
2016-Dec-06 07:33N 36°05' W 005°23'2 2.1
2016-Dec-06 06:33N 36°03' W 005°23'9 9.3
2016-Dec-06 05:33N 35°57' W 005°32'25711.1
2016-Dec-05 06:30N 38°14' W 010°03'1212.8
2016-Dec-05 05:33N 38°26' W 010°07'1312.7
2016-Dec-05 04:33N 38°38' W 010°10'1212.3
2016-Dec-05 03:33N 38°51' W 010°11'1211.8
2016-Dec-05 02:33N 39°03' W 010°12'1212.0
2016-Dec-05 01:33N 39°15' W 010°12'1212.1
2016-Dec-05 00:33N 39°27' W 010°12'  
2016-Dec-02 18:18N 49°27' W 004°31'2312.6
2016-Dec-02 16:29N 49°39' W 004°02'1313.7
2016-Dec-02 15:33N 49°46' W 003°45'1514.7
2016-Dec-02 14:34N 49°53' W 003°25'1515.1
2016-Dec-02 13:34N 49°58' W 003°03'1514.6
2016-Dec-02 12:34N 50°02' W 002°41'1813.1
2016-Dec-02 11:13N 50°07' W 002°15'811.6
2016-Dec-02 10:33N 50°09' W 002°03'1110.6
2016-Dec-02 09:33N 50°12' W 001°47'1010.3
2016-Dec-02 08:34N 50°14' W 001°32'1111.1
2016-Dec-02 07:33N 50°17' W 001°15'1513.3
2016-Dec-02 06:23N 50°22' W 000°52'1214.7
2016-Dec-02 05:33N 50°25' W 000°33'1514.9
2016-Dec-02 04:33N 50°30' W 000°11'1514.9
2016-Dec-02 03:33N 50°33' E 000°12'1914.5
2016-Dec-02 02:17N 50°38' E 000°40'2213.0
2016-Dec-02 00:33N 50°51' E 001°09'1212.0
2016-Dec-01 23:33N 50°59' E 001°23'1414.2
2016-Dec-01 22:34N 51°09' E 001°39'1515.5
2016-Dec-01 21:34N 51°22' E 001°52'1615.5
2016-Dec-01 20:33N 51°34' E 002°07'1514.9
2016-Dec-01 19:32N 51°46' E 002°23'45711.4
2016-Nov-30 03:33N 57°50' E 010°23'10 9.7
2016-Nov-30 02:33N 57°50' E 010°41'8 7.9
2016-Nov-30 01:33N 57°46' E 010°53'8 8.3
2016-Nov-30 00:33N 57°39' E 011°03'1111.5
2016-Nov-29 23:33N 57°31' E 011°19'1111.4
2016-Nov-29 22:33N 57°22' E 011°31'1212.3
2016-Nov-29 21:33N 57°10' E 011°38'1312.7
2016-Nov-29 20:33N 56°58' E 011°45'  
Track history (hours):
 
Tides and Currents Weather Stations Pressure Air Temp Water Temp Dewpoint Dewpoint Depression Visibility Wind Speed Wind Dir Waves Ship Positions

Georg Jacob

Last reported at 2016-Dec-09 19:20 UTC. Time now 2016-Dec-10 16:41 UTC.
Position N 36°11' E 014°46'.

Length 229 m; draft 12.7 m.

Type: Tanker. MMSI: 636092136.

Date/timePositionNaut miles runAvg speedWind from/ knotsBaromVisibWave heightAir tempDewpointWater temp
2016-Dec-09 19:20N 36°11' E 014°46'1012.9
2016-Dec-09 18:33N 36°14' E 014°34'1313.2
2016-Dec-09 17:33N 36°19' E 014°19'1313.3
2016-Dec-09 16:33N 36°24' E 014°04'1313.3
2016-Dec-09 15:33N 36°29' E 013°48'1713.2
2016-Dec-09 14:14N 36°35' E 013°28'1013.2
2016-Dec-09 13:30N 36°38' E 013°17'  
2016-Dec-06 14:12N 35°60' W 005°03'914.0
2016-Dec-06 13:33N 35°60' W 005°14'1010.1
2016-Dec-06 12:32N 36°06' W 005°24'0 0.2
2016-Dec-06 11:17N 36°06' W 005°24'0 0.1
2016-Dec-06 10:23N 36°06' W 005°24'0 0.1
2016-Dec-06 09:23N 36°06' W 005°24'0 0.2
2016-Dec-06 08:07N 36°06' W 005°24'1 1.9
2016-Dec-06 07:33N 36°05' W 005°23'2 2.1
2016-Dec-06 06:33N 36°03' W 005°23'9 9.3
2016-Dec-06 05:33N 35°57' W 005°32'25711.1
2016-Dec-05 06:30N 38°14' W 010°03'1212.8
2016-Dec-05 05:33N 38°26' W 010°07'1312.7
2016-Dec-05 04:33N 38°38' W 010°10'1212.3
2016-Dec-05 03:33N 38°51' W 010°11'1211.8
2016-Dec-05 02:33N 39°03' W 010°12'1212.0
2016-Dec-05 01:33N 39°15' W 010°12'1212.1
2016-Dec-05 00:33N 39°27' W 010°12'  
2016-Dec-02 18:18N 49°27' W 004°31'2312.6
2016-Dec-02 16:29N 49°39' W 004°02'1313.7
2016-Dec-02 15:33N 49°46' W 003°45'1514.7
2016-Dec-02 14:34N 49°53' W 003°25'1515.1
2016-Dec-02 13:34N 49°58' W 003°03'1514.6
2016-Dec-02 12:34N 50°02' W 002°41'1813.1
2016-Dec-02 11:13N 50°07' W 002°15'811.6
2016-Dec-02 10:33N 50°09' W 002°03'1110.6
2016-Dec-02 09:33N 50°12' W 001°47'1010.3
2016-Dec-02 08:34N 50°14' W 001°32'1111.1
2016-Dec-02 07:33N 50°17' W 001°15'1513.3
2016-Dec-02 06:23N 50°22' W 000°52'1214.7
2016-Dec-02 05:33N 50°25' W 000°33'1514.9
2016-Dec-02 04:33N 50°30' W 000°11'1514.9
2016-Dec-02 03:33N 50°33' E 000°12'1914.5
2016-Dec-02 02:17N 50°38' E 000°40'2213.0
2016-Dec-02 00:33N 50°51' E 001°09'1212.0
2016-Dec-01 23:33N 50°59' E 001°23'1414.2
2016-Dec-01 22:34N 51°09' E 001°39'1515.5
2016-Dec-01 21:34N 51°22' E 001°52'1615.5
2016-Dec-01 20:33N 51°34' E 002°07'1514.9
2016-Dec-01 19:32N 51°46' E 002°23'45711.4
2016-Nov-30 03:33N 57°50' E 010°23'10 9.7
2016-Nov-30 02:33N 57°50' E 010°41'8 7.9
2016-Nov-30 01:33N 57°46' E 010°53'8 8.3
2016-Nov-30 00:33N 57°39' E 011°03'1111.5
2016-Nov-29 23:33N 57°31' E 011°19'1111.4
2016-Nov-29 22:33N 57°22' E 011°31'1212.3
2016-Nov-29 21:33N 57°10' E 011°38'1312.7
2016-Nov-29 20:33N 56°58' E 011°45'  

Dump ship's entire track history